createdAt,value
2022-09-09T00:01:27.673Z,1.30
2022-09-09T00:06:53.885Z,1.10
2022-09-09T00:12:17.643Z,1.20
2022-09-09T00:17:43.881Z,2.30
2022-09-09T00:22:55.030Z,1.65
2022-09-09T00:27:57.392Z,2.25
2022-09-09T00:33:14.078Z,1.80
2022-09-09T00:38:33.404Z,1.88
2022-09-09T00:43:41.313Z,4.53
2022-09-09T00:48:52.406Z,3.70
2022-09-09T00:54:17.147Z,2.17
2022-09-09T00:59:28.619Z,1.77
2022-09-09T01:04:37.169Z,1.27
2022-09-09T01:09:52.664Z,8.00
2022-09-09T01:15:11.083Z,6.55
2022-09-09T01:20:18.441Z,1.80
2022-09-09T01:25:43.463Z,6.03
2022-09-09T01:30:45.223Z,6.15
2022-09-09T01:35:55.460Z,5.22
2022-09-09T01:40:57.174Z,2.97
2022-09-09T01:56:47.297Z,1.02
2022-09-09T02:02:03.343Z,1.10
2022-09-09T02:07:25.102Z,1.17
2022-09-09T02:12:28.721Z,3.50
2022-09-09T02:17:34.720Z,4.60
2022-09-09T02:22:40.490Z,1.75
2022-09-09T02:27:44.116Z,3.45
2022-09-09T02:32:46.899Z,4.13
2022-09-09T02:37:52.279Z,5.47
2022-09-09T02:42:55.919Z,3.17
2022-09-09T02:48:18.790Z,3.53
2022-09-09T02:53:56.220Z,2.42
2022-09-09T02:58:57.994Z,3.85
2022-09-09T03:03:59.754Z,2.08
2022-09-09T03:09:02.883Z,1.33
2022-09-09T03:14:04.574Z,1.50
2022-09-09T03:19:07.223Z,1.63
2022-09-09T03:24:08.873Z,3.05
2022-09-09T03:29:10.508Z,1.58
2022-09-09T03:34:12.317Z,1.17
2022-09-09T03:39:15.302Z,1.13
2022-09-09T03:44:16.977Z,1.25
2022-09-09T03:49:19.013Z,1.92
2022-09-09T03:54:20.693Z,2.33
2022-09-09T03:59:22.324Z,1.80
2022-09-09T04:04:24.489Z,1.15
2022-09-09T04:09:26.549Z,1.50
2022-09-09T04:14:29.662Z,1.40
2022-09-09T04:19:32.298Z,2.42
2022-09-09T04:24:33.919Z,2.05
2022-09-09T04:29:36.052Z,2.72
2022-09-09T04:34:38.290Z,2.17
2022-09-09T04:39:40.417Z,1.58
2022-09-09T04:44:42.181Z,2.53
2022-09-09T04:49:43.846Z,1.85
2022-09-09T04:54:46.193Z,1.77
2022-09-09T04:59:48.429Z,2.05
2022-09-09T05:04:50.767Z,2.70
2022-09-09T05:09:52.425Z,3.08
2022-09-09T05:14:54.250Z,2.45
2022-09-09T05:25:15.634Z,2.65
2022-09-09T05:30:19.924Z,2.92
2022-09-09T05:35:22.066Z,2.70
2022-09-09T05:40:24.767Z,2.25
2022-09-09T05:45:26.520Z,4.90
2022-09-09T05:50:31.508Z,3.63
2022-09-09T05:55:33.722Z,2.85
2022-09-09T06:00:35.813Z,2.30
2022-09-09T06:05:37.518Z,2.95
2022-09-09T06:10:39.830Z,3.58
2022-09-09T06:15:53.307Z,1.95
2022-09-09T06:21:06.152Z,2.13
2022-09-09T06:26:18.365Z,2.38
2022-09-09T06:31:29.376Z,3.58
2022-09-09T06:37:06.466Z,3.63
2022-09-09T06:42:12.333Z,5.85
2022-09-09T06:47:14.381Z,2.50
2022-09-09T06:52:16.095Z,2.40
2022-09-09T07:02:40.729Z,1.33
2022-09-09T07:07:43.065Z,1.10
2022-09-09T07:12:44.952Z,1.67
2022-09-09T07:17:47.390Z,1.40
2022-09-09T07:22:49.279Z,0.85
2022-09-09T07:27:51.321Z,0.90
2022-09-09T07:32:53.574Z,1.02
2022-09-09T07:37:55.628Z,0.90
2022-09-09T07:42:57.401Z,1.00
2022-09-09T07:48:00.181Z,1.02
2022-09-09T07:53:03.669Z,1.05
2022-09-09T07:58:05.674Z,1.00
2022-09-09T08:03:08.048Z,0.93
2022-09-09T08:08:10.206Z,1.42
2022-09-09T08:13:18.451Z,1.17
2022-09-09T08:18:20.434Z,0.60
2022-09-09T08:23:22.533Z,0.95
2022-09-09T08:28:24.213Z,1.23
2022-09-09T08:33:26.822Z,1.02
2022-09-09T08:38:29.947Z,0.70
2022-09-09T08:43:33.542Z,0.60
2022-09-09T08:48:43.068Z,0.98
2022-09-09T08:53:51.062Z,0.65
2022-09-09T08:58:55.270Z,0.68
2022-09-09T09:04:25.063Z,0.77
2022-09-09T09:10:01.927Z,0.60
2022-09-09T09:15:18.073Z,0.82
2022-09-09T09:20:27.983Z,0.73
2022-09-09T09:25:38.926Z,0.80
2022-09-09T09:30:43.859Z,1.00
2022-09-09T09:35:45.604Z,0.60
2022-09-09T09:40:59.020Z,0.63
2022-09-09T09:46:16.820Z,0.85
2022-09-09T09:51:20.971Z,0.70
2022-09-09T09:56:31.447Z,0.90
2022-09-09T10:01:34.922Z,0.60
2022-09-09T10:06:39.148Z,0.70
2022-09-09T10:12:09.933Z,0.90
2022-09-09T10:17:18.119Z,0.70
2022-09-09T10:22:25.877Z,0.80
2022-09-09T10:28:05.417Z,1.00
2022-09-09T10:33:17.110Z,1.00
2022-09-09T10:43:42.257Z,0.82
2022-09-09T10:49:23.197Z,0.80
2022-09-09T10:55:02.753Z,0.40
2022-09-09T11:00:08.016Z,0.55
2022-09-09T11:05:19.308Z,0.50
2022-09-09T11:10:57.676Z,0.60
2022-09-09T11:16:28.374Z,0.55
2022-09-09T11:21:37.858Z,1.02
2022-09-09T11:26:54.125Z,0.45
2022-09-09T11:32:34.217Z,0.43
2022-09-09T11:37:54.842Z,0.30
2022-09-09T11:43:15.483Z,0.80
2022-09-09T11:48:32.581Z,0.45
2022-09-09T11:53:37.233Z,0.47
2022-09-09T11:58:42.525Z,0.35
2022-09-09T12:03:56.044Z,0.70
2022-09-09T12:09:29.902Z,0.60
2022-09-09T12:14:56.216Z,0.57
2022-09-09T12:20:18.541Z,1.58
2022-09-09T12:25:31.242Z,0.70
2022-09-09T12:30:59.993Z,0.80
2022-09-09T12:36:03.078Z,1.10
2022-09-09T12:41:05.342Z,1.50
2022-09-09T12:46:27.322Z,0.60
2022-09-09T12:51:31.951Z,0.60
2022-09-09T12:56:36.776Z,0.80
2022-09-09T13:01:39.070Z,0.63
2022-09-09T13:06:40.908Z,0.43
2022-09-09T13:11:49.667Z,0.52
2022-09-09T13:16:59.534Z,0.75
2022-09-09T13:22:13.289Z,0.20
2022-09-09T13:27:35.265Z,0.30
2022-09-09T13:32:37.044Z,0.40
2022-09-09T13:37:42.306Z,1.02
2022-09-09T13:42:55.323Z,0.50
2022-09-09T13:47:57.393Z,0.15
2022-09-09T13:53:00.508Z,0.50
2022-09-09T13:58:04.603Z,0.55
2022-09-09T14:03:06.792Z,0.38
2022-09-09T14:08:12.140Z,0.40
2022-09-09T14:13:13.803Z,0.17
2022-09-09T14:18:15.630Z,0.52
2022-09-09T14:23:17.978Z,0.20
2022-09-09T14:28:34.320Z,0.73
2022-09-09T14:33:41.881Z,0.40
2022-09-09T14:38:43.813Z,0.30
2022-09-09T14:43:47.132Z,0.60
2022-09-09T14:48:55.416Z,0.43
2022-09-09T14:54:00.151Z,0.47
2022-09-09T14:59:02.670Z,0.60
2022-09-09T15:04:06.168Z,0.50
2022-09-09T15:09:08.310Z,0.20
2022-09-09T15:14:10.469Z,0.40
2022-09-09T15:19:12.335Z,0.40
2022-09-09T15:24:14.636Z,0.45
2022-09-09T15:29:16.771Z,0.55
2022-09-09T15:34:18.943Z,0.47
2022-09-09T15:39:20.688Z,0.50
2022-09-09T15:44:26.326Z,0.30
2022-09-09T15:49:28.165Z,0.60
2022-09-09T15:54:33.342Z,0.55
2022-09-09T15:59:35.597Z,0.30
2022-09-09T16:04:37.577Z,0.82
2022-09-09T16:09:39.345Z,0.80
2022-09-09T16:14:41.745Z,0.80
2022-09-09T16:19:43.390Z,0.40
2022-09-09T16:24:46.028Z,0.22
2022-09-09T16:29:47.801Z,0.43
2022-09-09T16:34:49.547Z,0.40
2022-09-09T16:39:52.149Z,0.45
2022-09-09T16:44:53.921Z,0.28
2022-09-09T16:49:55.664Z,0.30
2022-09-09T16:54:57.384Z,1.23
2022-09-09T17:00:00.348Z,0.55
2022-09-09T17:05:02.230Z,0.40
2022-09-09T17:10:04.127Z,0.55
2022-09-09T17:15:06.950Z,0.45
2022-09-09T17:20:09.758Z,0.38
2022-09-09T17:25:12.208Z,0.63
2022-09-09T17:30:14.168Z,0.85
2022-09-09T17:35:16.138Z,0.68
2022-09-09T17:40:18.283Z,0.60
2022-09-09T17:45:20.580Z,7.25
2022-09-09T17:50:22.589Z,0.30
2022-09-09T17:55:24.571Z,0.28
2022-09-09T18:00:26.875Z,0.57
2022-09-09T18:05:29.821Z,0.22
2022-09-09T18:10:31.847Z,0.30
2022-09-09T18:15:49.184Z,0.28
2022-09-09T18:21:03.225Z,0.40
2022-09-09T18:26:13.612Z,0.30
2022-09-09T18:31:17.294Z,0.20
2022-09-09T18:36:25.139Z,0.30
2022-09-09T18:41:27.423Z,0.13
2022-09-09T18:46:32.793Z,0.20
2022-09-09T18:51:37.172Z,0.20
2022-09-09T18:56:39.254Z,0.40
2022-09-09T19:01:42.273Z,0.40
2022-09-09T19:06:46.728Z,0.90
2022-09-09T19:11:48.445Z,0.80
2022-09-09T19:16:50.643Z,0.95
2022-09-09T19:21:52.752Z,1.50
2022-09-09T19:26:57.912Z,1.08
2022-09-09T19:32:42.426Z,0.70
2022-09-09T19:37:24.411Z,0.70
2022-09-09T19:42:26.092Z,0.60
2022-09-09T19:47:27.721Z,0.60
2022-09-09T19:52:29.551Z,0.80
2022-09-09T19:57:31.637Z,0.90
2022-09-09T20:02:33.857Z,0.75
2022-09-09T20:07:36.032Z,0.60
2022-09-09T20:12:37.717Z,1.05
2022-09-09T20:17:39.345Z,0.73
2022-09-09T20:22:41.021Z,0.70
2022-09-09T20:27:42.738Z,0.60
2022-09-09T20:32:44.466Z,0.40
2022-09-09T20:37:46.847Z,1.48
2022-09-09T20:42:48.963Z,0.70
2022-09-09T20:47:51.114Z,0.40
2022-09-09T20:52:52.765Z,0.60
2022-09-09T20:57:54.421Z,0.80
2022-09-09T21:02:56.534Z,0.47
2022-09-09T21:07:59.133Z,0.63
2022-09-09T21:13:01.537Z,0.70
2022-09-09T21:18:03.384Z,3.00
2022-09-09T21:23:07.117Z,1.48
2022-09-09T21:28:09.609Z,1.70
2022-09-09T21:33:11.924Z,0.70
2022-09-09T21:38:21.031Z,0.75
2022-09-09T21:43:26.006Z,1.17
2022-09-09T21:48:28.206Z,0.63
2022-09-09T21:53:30.289Z,1.00
2022-09-09T21:58:32.450Z,2.00
2022-09-09T22:03:39.668Z,1.85
2022-09-09T22:08:42.786Z,1.80
2022-09-09T22:13:48.321Z,1.25
2022-09-09T22:18:56.631Z,0.75
2022-09-09T22:24:03.816Z,1.02
2022-09-09T22:29:06.741Z,1.60
2022-09-09T22:34:08.398Z,2.67
2022-09-09T22:39:10.094Z,2.00
2022-09-09T22:44:11.769Z,1.60
2022-09-09T22:49:13.375Z,1.38
2022-09-09T22:54:21.494Z,1.20
2022-09-09T22:59:23.554Z,1.15
2022-09-09T23:04:25.521Z,0.75
2022-09-09T23:09:27.931Z,1.17
2022-09-09T23:14:30.937Z,0.80
2022-09-09T23:19:32.609Z,0.70
2022-09-09T23:24:34.685Z,1.40
2022-09-09T23:29:36.353Z,2.22
2022-09-09T23:34:40.031Z,0.75
2022-09-09T23:39:42.730Z,0.82
2022-09-09T23:44:47.504Z,0.77
2022-09-09T23:49:50.553Z,1.20
2022-09-09T23:54:52.251Z,2.42
2022-09-09T23:59:53.923Z,1.67
